Latest Weather Observations for Yunta

IDS60801

Issued at 4:01 am CST Monday 25 July 2016 (issued every 30 minutes, with the page automatically refreshed every 10 minutes)

About weather observations | Map of weather stations | Latest weather observations for SA | Other Formats
Station Details ID: 020062 Name: YUNTA AIRSTRIP Lat: -32.57 Lon: 139.56 Height: 300.0 m
Data from the previous 72 hours. | See also: Recent months at Yunta
Date/Time
CST
Temp
°C
App
Temp
°C
Dew
Point
°C
Rel
Hum
%
Delta-T
°C
Wind Press
QNH
hPa
Press
MSL
hPa
Rain since
9am
mm
Dir  Spd
km/h
Gust
km/h
Spd
kts
Gust
kts
25/04:00am 7.5 3.8 2.4 70 2.2 SW 11 19 6 10 1016.7 1017.1 0.2
25/03:30am 8.5 4.1 2.7 67 2.5 WSW 15 24 8 13 1016.8 1017.2 0.2
25/03:00am 8.0 3.2 2.7 69 2.3 WSW 17 24 9 13 1016.6 1016.9 0.2
25/02:30am 7.9 2.6 3.0 71 2.1 W 20 30 11 16 1016.5 1016.8 0.2
25/02:00am 8.3 3.6 3.2 70 2.2 W 17 24 9 13 1016.8 1017.2 0.2
25/01:30am 8.4 4.1 3.3 70 2.2 W 15 22 8 12 1016.8 1017.2 0.2
25/01:00am 8.6 4.3 3.0 68 2.4 W 15 20 8 11 1016.8 1017.2 0.2
25/12:30am 8.3 3.0 2.8 68 2.4 W 20 26 11 14 1016.5 1016.8 0.2
25/12:00am 8.6 3.8 2.8 67 2.5 W 17 24 9 13 1016.5 1016.8 0.2
 
Date/Time
CST
Temp
°C
App
Temp
°C
Dew
Point
°C
Rel
Hum
%
Delta-T
°C
Wind Press
QNH
hPa
Press
MSL
hPa
Rain since
9am
mm
Dir  Spd
km/h
Gust
km/h
Spd
kts
Gust
kts
24/11:30pm 8.8 1.9 2.6 65 2.7 W 28 37 15 20 1016.1 1016.4 0.2
24/11:00pm 8.9 1.6 2.7 65 2.7 W 30 41 16 22 1015.8 1016.1 0.2
24/10:30pm 8.7 2.1 2.1 63 2.8 W 26 35 14 19 1015.9 1016.2 0.2
24/10:00pm 8.5 1.9 1.9 63 2.8 WNW 26 35 14 19 1015.7 1016.0 0.2
24/09:30pm 8.8 2.6 1.9 62 2.9 W 24 33 13 18 1015.6 1015.9 0.2
24/09:00pm 9.0 2.7 1.7 60 3.1 W 24 33 13 18 1015.3 1015.7 0.2
24/08:30pm 9.3 2.2 1.2 57 3.4 W 28 43 15 23 1015.0 1015.4 0.2
24/08:00pm 9.6 3.3 1.3 56 3.5 WNW 24 33 13 18 1014.7 1015.1 0.2
24/07:30pm 9.6 4.2 1.3 56 3.5 WNW 19 33 10 18 1014.5 1014.9 0.2
24/07:00pm 8.7 5.0 2.1 63 2.8 NW 11 13 6 7 1014.3 1014.7 0.2
24/06:30pm 9.1 6.0 1.3 58 3.3 W 7 13 4 7 1014.1 1014.5 0.2
24/06:00pm 10.6 5.6 1.4 53 3.9 W 17 24 9 13 1013.5 1013.8 0.2
24/05:30pm 11.1 5.2 1.4 51 4.1 W 22 30 12 16 1013.2 1013.5 0.2
24/05:00pm 11.1 3.6 1.4 51 4.1 W 30 41 16 22 1012.9 1013.2 0.2
24/04:30pm 11.9 3.8 1.0 47 4.7 W 33 48 18 26 1012.4 1012.7 0.2
24/04:01pm 12.1 2.9 1.1 47 4.7 W 39 57 21 31 1011.7 1012.1 0.2
24/04:00pm 12.2 2.6 0.9 46 4.8 W 41 57 22 31 1011.7 1012.1 0.2
24/03:58pm 12.6 3.4 1.0 45 5.0 W 39 57 21 31 1011.6 1012.0 0.2
24/03:30pm 12.4 4.4 1.7 48 4.7 WNW 33 50 18 27 1011.3 1011.7 0.2
24/03:00pm 12.4 2.7 0.2 43 5.1 WNW 41 61 22 33 1010.9 1011.2 0.2
24/02:30pm 11.8 1.8 0.9 47 4.6 W 43 54 23 29 1011.1 1011.5 0.2
24/02:00pm 11.7 2.2 1.6 50 4.4 W 41 57 22 31 1011.4 1011.8 0.2
24/01:52pm 11.6 2.7 1.0 48 4.5 WNW 37 57 20 31 1011.4 1011.8 0.2
24/01:30pm 11.5 3.2 2.0 52 4.1 WNW 35 50 19 27 1011.6 1012.0 0.2
24/01:00pm 12.1 1.2 1.4 48 4.6 WNW 48 61 26 33 1011.6 1012.0 0.2
24/12:47pm 12.4 1.4 0.8 45 4.9 WNW 48 69 26 37 1011.5 1011.9 0.2
24/12:30pm 12.3 2.5 0.1 43 5.1 WNW 41 54 22 29 1011.6 1012.0 0.2
24/12:00pm 12.3 3.3 0.1 43 5.1 WNW 37 52 20 28 1011.4 1011.8 0.2
24/11:30am 13.1 3.4 0.5 42 5.4 NW 41 54 22 29 1011.6 1012.0 0.2
24/11:09am 12.4 2.3 0.2 43 5.1 WNW 43 61 23 33 1011.7 1012.1 0.2
24/11:00am 11.9 1.9 0.7 46 4.7 NW 43 59 23 32 1012.0 1012.3 0.2
24/10:41am 12.0 3.7 2.2 51 4.3 WNW 35 56 19 30 1012.1 1012.4 0.2
24/10:30am 11.5 3.3 2.5 54 4.0 NW 35 54 19 29 1012.1 1012.4 0.2
24/10:29am 11.5 3.6 2.5 54 4.0 NW 33 54 18 29 1012.1 1012.4 0.2
24/10:00am 11.4 5.0 3.4 58 3.6 NW 26 37 14 20 1012.0 1012.3 0.2
24/09:30am 10.7 4.8 4.0 63 3.0 N 24 32 13 17 1012.3 1012.6 0.0
24/09:00am 10.1 5.2 4.3 67 2.6 NNW 19 24 10 13 1012.5 1012.8 0.0
24/08:30am 8.9 3.0 3.9 71 2.2 NNW 24 33 13 18 1012.3 1012.6 0.0
24/08:00am 8.2 2.6 3.5 72 2.1 N 22 30 12 16 1012.4 1012.7 0.0
24/07:30am 7.8 2.8 3.7 75 1.8 N 19 26 10 14 1012.2 1012.5 0.0
24/07:00am 7.8 3.1 3.1 72 2.0 N 17 22 9 12 1012.8 1013.1 0.0
24/06:30am 7.6 2.5 3.1 73 1.9 N 19 24 10 13 1013.0 1013.3 0.0
24/06:00am 7.8 2.7 3.1 72 2.0 N 19 24 10 13 1012.9 1013.2 0.0
24/05:30am 7.7 4.1 3.0 72 2.0 N 11 15 6 8 1012.4 1012.7 0.0
24/05:00am 7.4 2.7 2.9 73 1.9 N 17 20 9 11 1012.5 1012.8 0.0
24/04:30am 6.9 2.1 2.4 73 1.9 N 17 22 9 12 1012.8 1013.1 0.0
24/04:00am 6.3 1.9 2.6 77 1.6 NNW 15 20 8 11 1013.1 1013.4 0.0
24/03:30am 6.0 1.5 2.1 76 1.6 NNW 15 17 8 9 1013.1 1013.4 0.0
24/03:00am 5.9 2.1 2.0 76 1.6 N 11 13 6 7 1013.3 1013.6 0.0
24/02:30am 7.5 4.2 2.2 69 2.2 NNW 9 13 5 7 1013.6 1013.9 0.0
24/02:00am 8.1 4.0 2.4 67 2.4 NNW 13 17 7 9 1014.0 1014.4 0.0
24/01:30am 6.9 4.2 2.4 73 1.9 N 6 9 3 5 1014.4 1014.8 0.0
24/01:00am 7.5 4.7 3.0 73 1.9 NNE 7 11 4 6 1014.6 1015.0 0.0
24/12:30am 7.2 5.3 3.1 75 1.8 NE 2 6 1 3 1014.9 1015.3 0.0
24/12:00am 6.4 3.7 2.9 78 1.5 NNE 6 11 3 6 1015.5 1015.8 0.0
 
Date/Time
CST
Temp
°C
App
Temp
°C
Dew
Point
°C
Rel
Hum
%
Delta-T
°C
Wind Press
QNH
hPa
Press
MSL
hPa
Rain since
9am
mm
Dir  Spd
km/h
Gust
km/h
Spd
kts
Gust
kts
23/11:30pm 5.8 4.2 2.3 78 1.4 CALM 0 0 0 0 1015.9 1016.2 0.0
23/11:00pm 5.2 3.5 2.0 80 1.3 CALM 0 0 0 0 1015.9 1016.2 0.0
23/10:30pm 4.6 2.9 1.8 82 1.1 CALM 0 0 0 0 1015.7 1016.0 0.0
23/10:00pm 3.8 1.2 0.8 81 1.2 NNW 4 6 2 3 1016.1 1016.4 0.0
23/09:30pm 3.4 1.4 -0.2 77 1.4 CALM 0 0 0 0 1015.9 1016.2 0.0
23/09:00pm 4.7 2.9 1.0 77 1.5 CALM 0 0 0 0 1016.2 1016.5 0.0
23/08:30pm 5.9 4.1 1.1 71 1.9 CALM 0 0 0 0 1016.1 1016.4 0.0
23/08:00pm 7.3 5.7 2.6 72 2.0 CALM 0 0 0 0 1015.8 1016.1 0.0
23/07:30pm 6.8 4.8 2.3 73 1.9 SSW 2 4 1 2 1015.9 1016.2 0.0
23/07:00pm 7.6 4.8 2.3 69 2.2 WSW 6 9 3 5 1015.8 1016.1 0.0
23/06:30pm 8.9 5.6 2.7 65 2.7 WSW 9 9 5 5 1015.7 1016.0 0.0
23/06:00pm 10.4 6.5 3.2 61 3.2 WSW 13 17 7 9 1015.3 1015.7 0.0
23/05:30pm 11.2 7.4 3.7 60 3.4 SW 13 17 7 9 1015.1 1015.5 0.0
23/05:00pm 10.9 6.5 4.8 66 2.8 SSW 17 22 9 12 1014.6 1015.0 0.0
23/04:30pm 12.0 6.5 3.8 57 3.7 SW 22 30 12 16 1014.4 1014.8 0.0
23/04:00pm 12.6 7.2 2.2 49 4.6 WSW 20 28 11 15 1014.5 1014.9 0.0
23/03:30pm 12.5 6.7 4.2 57 3.8 WSW 24 33 13 18 1014.4 1014.8 0.0
23/03:00pm 12.9 7.8 3.3 52 4.3 WSW 19 28 10 15 1014.5 1014.9 0.0
23/02:30pm 12.7 9.1 4.9 59 3.7 WSW 13 20 7 11 1014.4 1014.8 0.0
23/02:00pm 13.9 9.6 5.3 56 4.1 W 17 28 9 15 1014.4 1014.8 0.0
23/01:30pm 13.0 9.1 5.4 60 3.6 W 15 20 8 11 1014.4 1014.8 0.0
23/01:00pm 12.6 8.5 6.2 65 3.1 W 17 24 9 13 1014.6 1015.0 0.0
23/12:30pm 10.8 6.5 7.9 82 1.4 WSW 20 28 11 15 1015.1 1015.5 0.0
23/12:00pm 13.1 7.8 4.8 57 3.9 WSW 22 30 12 16 1015.0 1015.4 0.0
23/11:30am 12.2 7.1 3.9 57 3.8 W 20 28 11 15 1015.2 1015.6 0.0
23/11:00am 12.3 7.0 4.8 60 3.5 WSW 22 33 12 18 1015.2 1015.6 0.0
23/10:30am 11.7 6.8 4.0 59 3.5 W 19 28 10 15 1015.0 1015.4 0.0
23/10:00am 11.1 6.1 4.6 64 3.0 W 20 30 11 16 1015.0 1015.4 0.0
23/09:30am 10.2 5.7 4.1 66 2.7 WNW 17 24 9 13 1014.9 1015.3 0.0
23/09:00am 9.5 5.1 4.5 71 2.3 NW 17 22 9 12 1014.5 1014.9 0.0
23/08:30am 8.9 5.1 4.1 72 2.1 WNW 13 20 7 11 1014.3 1014.7 0.0
23/08:00am 8.0 5.4 4.2 77 1.7 NNW 7 13 4 7 1014.2 1014.6 0.0
23/07:30am 7.8 4.7 3.7 75 1.8 NW 9 11 5 6 1013.7 1014.0 0.0
23/07:00am 7.2 4.1 3.4 77 1.6 WNW 9 13 5 7 1013.4 1013.7 0.0
23/06:30am 7.2 4.1 3.4 77 1.6 WNW 9 15 5 8 1013.0 1013.3 0.0
23/06:00am 7.3 4.7 3.4 76 1.7 NW 6 9 3 5 1012.7 1013.0 0.0
23/05:30am 7.5 4.9 3.0 73 1.9 SW 6 13 3 7 1012.4 1012.7 0.0
23/05:00am 7.9 3.6 3.4 73 2.0 W 15 33 8 18 1011.4 1011.8 0.0
23/04:30am 7.2 3.7 3.4 77 1.6 ENE 11 17 6 9 1011.8 1012.2 0.0
23/04:00am 7.4 2.4 3.5 76 1.7 W 19 24 10 13 1010.8 1011.1 0.0
23/03:30am 7.7 2.7 3.6 75 1.8 W 19 26 10 14 1011.0 1011.3 0.0
23/03:00am 8.2 2.9 3.1 70 2.2 W 20 30 11 16 1010.8 1011.1 0.0
23/02:30am 8.7 2.3 3.1 68 2.4 W 26 35 14 19 1010.4 1010.7 0.0
23/02:00am 9.1 3.1 3.1 66 2.6 W 24 33 13 18 1010.5 1010.8 0.0
23/01:30am 8.8 1.9 2.8 66 2.6 W 28 43 15 23 1010.3 1010.6 0.0
23/01:00am 8.8 1.2 2.6 65 2.7 W 32 43 17 23 1010.0 1010.3 0.0
23/12:30am 8.9 1.2 2.5 64 2.8 W 32 48 17 26 1009.8 1010.1 0.0
23/12:17am 8.9 2.0 2.7 65 2.7 W 28 46 15 25 1009.8 1010.1 0.0
23/12:00am 9.1 1.3 2.7 64 2.8 W 33 44 18 24 1009.7 1010.0 0.0
 
Date/Time
CST
Temp
°C
App
Temp
°C
Dew
Point
°C
Rel
Hum
%
Delta-T
°C
Wind Press
QNH
hPa
Press
MSL
hPa
Rain since
9am
mm
Dir  Spd
km/h
Gust
km/h
Spd
kts
Gust
kts
22/11:43pm 9.1 1.3 2.9 65 2.7 W 33 52 18 28 1009.6 1009.9 0.0
22/11:30pm 9.2 0.7 3.0 65 2.7 W 37 50 20 27 1009.4 1009.7 0.0
22/11:04pm 9.4 0.5 3.2 65 2.7 W 39 57 21 31 1009.2 1009.5 0.0
22/11:00pm 9.3 0.0 3.1 65 2.7 W 41 56 22 30 1009.3 1009.6 0.0
22/10:30pm 9.5 0.3 3.3 65 2.7 W 41 61 22 33 1009.1 1009.4 0.0
22/10:10pm 9.8 0.6 3.5 65 2.8 W 41 59 22 32 1008.9 1009.2 0.0
22/10:00pm 9.8 0.6 3.3 64 2.9 W 41 56 22 30 1008.8 1009.1 0.0
22/09:32pm 10.0 0.6 2.6 60 3.2 W 41 59 22 32 1008.6 1008.9 0.0
22/09:30pm 10.1 0.4 2.7 60 3.2 W 43 59 23 32 1008.6 1008.9 0.0
22/09:05pm 10.1 0.8 2.9 61 3.2 W 41 67 22 36 1008.3 1008.7 0.0
22/09:00pm 10.3 1.7 2.7 59 3.3 W 37 56 20 30 1008.8 1009.1 0.0
22/08:30pm 11.1 1.5 3.2 58 3.5 W 43 61 23 33 1008.7 1009.0 0.0
22/08:21pm 12.0 3.4 2.5 52 4.2 W 37 56 20 30 1008.2 1008.5 0.0
22/08:00pm 12.0 3.0 2.5 52 4.2 W 39 56 21 30 1007.9 1008.2 0.0
22/07:35pm 12.3 4.5 3.0 53 4.2 W 33 56 18 30 1007.6 1007.9 0.0
22/07:30pm 12.2 4.7 3.2 54 4.1 W 32 43 17 23 1007.6 1007.9 0.0
22/07:00pm 13.2 4.9 2.4 48 4.8 WSW 35 52 19 28 1006.9 1007.2 0.0
22/06:33pm 15.1 6.3 -1.0 33 6.8 W 35 57 19 31 1005.8 1006.1 0.0
22/06:30pm 14.9 6.0 -1.6 32 6.9 W 35 52 19 28 1005.8 1006.1 0.0
22/06:00pm 15.1 5.6 -1.0 33 6.8 WNW 39 57 21 31 1005.1 1005.3 0.0
22/05:38pm 15.3 5.1 -0.1 35 6.6 WNW 43 63 23 34 1004.8 1005.1 0.0
22/05:30pm 15.6 4.6 0.6 36 6.6 WNW 48 63 26 34 1004.6 1004.9 0.0
22/05:01pm 16.0 6.2 2.1 39 6.3 WNW 43 61 23 33 1004.0 1004.3 0.0
22/05:00pm 16.0 6.0 2.4 40 6.2 WNW 44 61 24 33 1004.0 1004.3 0.0
22/04:31pm 16.6 6.4 3.3 41 6.2 WNW 46 65 25 35 1003.8 1004.1 0.0
22/04:30pm 16.5 5.9 3.2 41 6.2 WNW 48 65 26 35 1003.8 1004.1 0.0
22/04:10pm 16.6 5.6 3.0 40 6.3 WNW 50 70 27 38 1003.6 1003.9 0.0
22/04:00pm 17.0 6.6 4.0 42 6.2 WNW 48 67 26 36 1003.7 1004.0 0.0
22/03:30pm 16.6 6.6 4.3 44 5.9 WNW 46 63 25 34 1003.6 1003.9 0.0
22/03:00pm 16.1 6.8 4.8 47 5.4 WNW 43 65 23 35 1003.5 1003.8 0.0
22/02:50pm 16.2 6.9 4.9 47 5.4 WNW 43 63 23 34 1003.6 1003.9 0.0
22/02:30pm 16.1 7.1 4.8 47 5.4 WNW 41 57 22 31 1003.7 1004.0 0.0
22/02:00pm 16.5 9.1 4.9 46 5.6 WNW 33 48 18 26 1003.9 1004.2 0.0
22/01:30pm 16.8 8.5 4.2 43 6.0 WNW 37 54 20 29 1004.3 1004.6 0.0
22/01:00pm 17.2 8.9 4.2 42 6.2 WNW 37 50 20 27 1004.5 1004.8 0.0
22/12:30pm 16.8 10.3 4.8 45 5.8 WNW 28 41 15 22 1005.3 1005.5 0.0
22/12:00pm 16.5 9.3 4.9 46 5.6 NW 32 41 17 22 1005.3 1005.5 0.0
22/11:30am 16.7 12.0 5.9 49 5.3 NW 20 30 11 16 1006.0 1006.3 0.0
22/11:00am 16.2 11.7 6.1 51 5.0 NW 19 26 10 14 1006.3 1006.6 0.0
22/10:30am 15.9 10.8 5.8 51 5.0 W 22 32 12 17 1007.0 1007.3 0.0
22/10:00am 15.9 9.9 5.2 49 5.2 W 26 35 14 19 1007.0 1007.3 0.0
22/09:30am 16.7 12.7 9.1 61 4.0 WNW 20 30 11 16 1007.2 1007.5 0.0
22/09:00am 16.9 14.2 8.8 59 4.2 WNW 13 17 7 9 1006.3 1006.6 0.0
22/08:30am 16.8 12.7 8.8 59 4.2 NW 20 28 11 15 1006.2 1006.5 0.0
22/08:00am 16.4 12.6 8.9 61 3.9 WNW 19 26 10 14 1006.6 1006.9 0.0
22/07:30am 16.5 12.6 9.4 63 3.8 WNW 20 26 11 14 1006.2 1006.5 0.0
22/07:00am 17.7 12.7 10.8 64 3.8 WNW 28 35 15 19 1005.8 1006.1 0.0
22/06:30am 18.2 13.3 11.3 64 3.8 NW 28 37 15 20 1005.1 1005.3 0.0
22/06:00am 18.4 13.6 11.5 64 3.8 NW 28 43 15 23 1005.0 1005.2 0.0
22/05:30am 15.6 12.7 12.4 81 1.8 N 19 26 10 14 1005.2 1005.4 0.0
22/05:00am 16.0 11.9 12.6 80 1.9 N 26 33 14 18 1005.2 1005.4 0.0
22/04:30am 16.5 13.1 12.5 77 2.2 N 22 33 12 18 1005.1 1005.3 0.0

Other Formats:

Comma delimited format used in spreadsheet applications
http://www.bom.gov.au/fwo/IDS60801/IDS60801.94684.axf

JavaScript Object Notation format (JSON) in row-major order
http://www.bom.gov.au/fwo/IDS60801/IDS60801.94684.json